createdAt,value
2019-05-17T00:01:42.428Z,6.97
2019-05-17T00:04:12.800Z,6.90
2019-05-17T00:06:43.192Z,7.60
2019-05-17T00:09:13.561Z,8.20
2019-05-17T00:11:43.952Z,11.43
2019-05-17T00:14:16.618Z,7.03
2019-05-17T00:16:47.017Z,6.12
2019-05-17T00:19:17.487Z,8.38
2019-05-17T00:21:47.867Z,7.35
2019-05-17T00:24:19.304Z,9.05
2019-05-17T00:26:49.709Z,8.60
2019-05-17T00:29:20.086Z,8.55
2019-05-17T00:31:50.673Z,13.08
2019-05-17T00:34:21.043Z,8.70
2019-05-17T00:36:52.496Z,11.05
2019-05-17T00:39:22.872Z,9.33
2019-05-17T00:41:53.777Z,8.33
2019-05-17T00:44:24.146Z,7.72
2019-05-17T00:46:54.536Z,8.25
2019-05-17T00:49:26.446Z,8.23
2019-05-17T00:51:56.949Z,9.25
2019-05-17T00:54:27.311Z,8.65
2019-05-17T00:56:57.887Z,11.97
2019-05-17T00:59:28.253Z,8.20
2019-05-17T01:01:58.651Z,8.25
2019-05-17T01:04:29.023Z,10.15
2019-05-17T01:06:59.538Z,8.40
2019-05-17T01:09:29.906Z,9.20
2019-05-17T01:12:00.368Z,8.45
2019-05-17T01:14:30.744Z,10.43
2019-05-17T01:17:01.133Z,9.80
2019-05-17T01:19:31.516Z,8.63
2019-05-17T01:22:01.905Z,10.13
2019-05-17T01:24:32.775Z,9.85
2019-05-17T01:27:03.159Z,8.53
2019-05-17T01:29:33.525Z,9.95
2019-05-17T01:32:06.524Z,9.93
2019-05-17T01:34:37.644Z,9.83
2019-05-17T01:37:08.283Z,9.85
2019-05-17T01:39:38.663Z,9.43
2019-05-17T01:42:09.050Z,9.45
2019-05-17T01:44:39.429Z,10.53
2019-05-17T01:47:09.886Z,9.30
2019-05-17T01:49:40.257Z,10.48
2019-05-17T01:52:10.656Z,8.38
2019-05-17T01:54:41.294Z,12.00
2019-05-17T01:57:11.680Z,11.10
2019-05-17T01:59:42.092Z,9.95
2019-05-17T02:02:16.308Z,9.75
2019-05-17T02:04:46.766Z,12.30
2019-05-17T02:07:17.379Z,10.70
2019-05-17T02:09:47.850Z,10.03
2019-05-17T02:12:19.200Z,10.85
2019-05-17T02:14:49.558Z,8.78
2019-05-17T02:17:20.022Z,9.68
2019-05-17T02:19:50.390Z,10.98
2019-05-17T02:22:20.777Z,9.55
2019-05-17T02:24:51.147Z,11.25
2019-05-17T02:27:24.276Z,9.63
2019-05-17T02:29:54.003Z,10.18
2019-05-17T02:32:24.757Z,10.80
2019-05-17T02:34:55.128Z,11.00
2019-05-17T02:37:25.639Z,9.75
2019-05-17T02:40:03.230Z,8.58
2019-05-17T02:42:28.897Z,11.83
2019-05-17T02:45:02.623Z,12.68
2019-05-17T02:47:33.582Z,8.68
2019-05-17T02:50:05.643Z,9.28
2019-05-17T02:52:36.328Z,9.25
2019-05-17T02:55:07.897Z,9.90
2019-05-17T02:57:38.296Z,9.48
2019-05-17T03:00:12.549Z,9.93
2019-05-17T03:02:43.412Z,10.10
2019-05-17T03:05:14.435Z,9.38
2019-05-17T03:07:44.873Z,12.45
2019-05-17T03:10:23.946Z,11.75
2019-05-17T03:12:47.657Z,9.00
2019-05-17T03:15:18.193Z,9.88
2019-05-17T03:17:48.873Z,9.05
2019-05-17T03:20:22.924Z,11.85
2019-05-17T03:22:52.725Z,12.13
2019-05-17T03:25:24.030Z,13.22
2019-05-17T03:27:54.464Z,10.23
2019-05-17T03:30:26.184Z,11.68
2019-05-17T03:32:57.347Z,10.43
2019-05-17T03:35:27.769Z,11.88
2019-05-17T03:37:58.207Z,12.18
2019-05-17T03:40:56.555Z,11.48
2019-05-17T03:43:02.768Z,12.13
2019-05-17T03:45:34.439Z,11.80
2019-05-17T03:48:05.383Z,11.88
2019-05-17T03:50:35.874Z,12.35
2019-05-17T03:53:06.244Z,12.33
2019-05-17T03:55:36.646Z,13.28
2019-05-17T03:58:07.014Z,15.63
2019-05-17T04:00:37.396Z,15.88
2019-05-17T04:03:07.786Z,13.68
2019-05-17T04:05:38.158Z,13.83
2019-05-17T04:08:08.550Z,11.70
2019-05-17T04:10:42.364Z,14.30
2019-05-17T04:13:12.922Z,13.93
2019-05-17T04:15:43.506Z,15.10
2019-05-17T04:18:14.315Z,13.43
2019-05-17T04:20:44.681Z,15.18
2019-05-17T04:23:15.180Z,22.00
2019-05-17T04:25:46.625Z,15.78
2019-05-17T04:28:17.104Z,14.05
2019-05-17T04:30:47.477Z,13.98
2019-05-17T04:33:17.891Z,13.20
2019-05-17T04:35:48.248Z,13.38
2019-05-17T04:38:18.806Z,13.90
2019-05-17T04:40:49.163Z,14.30
2019-05-17T04:43:22.898Z,14.85
2019-05-17T04:45:53.526Z,14.45
2019-05-17T04:48:24.263Z,14.05
2019-05-17T04:50:54.640Z,15.05
2019-05-17T04:53:25.035Z,14.07
2019-05-17T04:55:55.409Z,13.78
2019-05-17T04:58:26.046Z,13.40
2019-05-17T05:00:57.403Z,13.15
2019-05-17T05:03:27.791Z,15.00
2019-05-17T05:05:58.179Z,12.40
2019-05-17T05:08:32.912Z,13.53
2019-05-17T05:11:03.218Z,12.78
2019-05-17T05:13:33.521Z,15.50
2019-05-17T05:16:04.089Z,15.10
2019-05-17T05:18:34.487Z,13.20
2019-05-17T05:21:04.867Z,14.45
2019-05-17T05:23:35.250Z,14.05
2019-05-17T05:26:05.687Z,13.45
2019-05-17T05:28:36.107Z,11.97
2019-05-17T05:31:06.484Z,12.53
2019-05-17T05:33:36.881Z,12.13
2019-05-17T05:36:07.820Z,11.93
2019-05-17T05:38:38.211Z,14.03
2019-05-17T05:41:12.071Z,14.53
2019-05-17T05:43:42.029Z,14.45
2019-05-17T05:46:12.508Z,13.85
2019-05-17T05:48:43.006Z,12.35
2019-05-17T05:51:13.842Z,14.68
2019-05-17T05:53:44.621Z,15.18
2019-05-17T05:56:15.017Z,13.03
2019-05-17T05:58:45.411Z,15.00
2019-05-17T06:01:15.777Z,15.28
2019-05-17T06:03:46.172Z,13.18
2019-05-17T06:06:16.546Z,15.83
2019-05-17T06:08:46.950Z,12.18
2019-05-17T06:11:17.327Z,11.38
2019-05-17T06:13:47.737Z,14.05
2019-05-17T06:16:18.140Z,12.20
2019-05-17T06:18:48.547Z,12.15
2019-05-17T06:21:18.924Z,11.75
2019-05-17T06:23:51.539Z,10.70
2019-05-17T06:26:23.740Z,12.28
2019-05-17T06:28:53.639Z,12.82
2019-05-17T06:31:24.209Z,13.43
2019-05-17T06:33:54.686Z,11.12
2019-05-17T06:36:25.064Z,12.98
2019-05-17T06:38:55.439Z,11.57
2019-05-17T06:41:25.808Z,11.75
2019-05-17T06:43:56.210Z,13.10
2019-05-17T06:46:26.580Z,11.38
2019-05-17T06:48:56.970Z,12.45
2019-05-17T06:51:27.343Z,12.40
2019-05-17T06:53:57.736Z,12.18
2019-05-17T06:56:28.103Z,13.75
2019-05-17T06:58:58.499Z,12.68
2019-05-17T07:01:29.272Z,12.20
2019-05-17T07:04:00.278Z,11.70
2019-05-17T07:06:32.472Z,11.63
2019-05-17T07:09:02.942Z,12.28
2019-05-17T07:11:33.390Z,11.85
2019-05-17T07:14:03.857Z,11.83
2019-05-17T07:16:34.239Z,11.97
2019-05-17T07:19:04.648Z,10.75
2019-05-17T07:21:35.015Z,10.45
2019-05-17T07:24:05.432Z,12.73
2019-05-17T07:26:39.232Z,11.18
2019-05-17T07:29:10.100Z,13.10
2019-05-17T07:31:40.654Z,10.15
2019-05-17T07:34:11.076Z,11.33
2019-05-17T07:36:41.454Z,11.45
2019-05-17T07:39:11.834Z,11.50
2019-05-17T07:41:42.206Z,11.48
2019-05-17T07:44:12.598Z,11.00
2019-05-17T07:46:43.050Z,10.15
2019-05-17T07:49:13.529Z,11.68
2019-05-17T07:51:43.896Z,12.93
2019-05-17T07:54:14.280Z,10.05
2019-05-17T07:56:45.414Z,10.38
2019-05-17T07:59:15.815Z,9.90
2019-05-17T08:01:46.183Z,8.40
2019-05-17T08:04:16.555Z,7.70
2019-05-17T08:06:46.920Z,8.70
2019-05-17T08:09:20.458Z,8.73
2019-05-17T08:11:50.603Z,8.98
2019-05-17T08:14:29.546Z,8.78
2019-05-17T08:16:53.186Z,8.45
2019-05-17T08:19:23.568Z,8.78
2019-05-17T08:21:54.022Z,7.65
2019-05-17T08:24:24.405Z,7.92
2019-05-17T08:26:54.784Z,8.83
2019-05-17T08:29:25.283Z,6.53
2019-05-17T08:31:55.660Z,7.85
2019-05-17T08:34:26.045Z,6.15
2019-05-17T08:36:56.404Z,7.28
2019-05-17T08:39:26.796Z,6.15
2019-05-17T08:41:57.247Z,6.35
2019-05-17T08:44:29.805Z,7.87
2019-05-17T08:47:00.850Z,7.47
2019-05-17T08:49:31.309Z,6.78
2019-05-17T08:52:01.674Z,7.33
2019-05-17T08:54:32.061Z,8.58
2019-05-17T08:57:02.443Z,7.92
2019-05-17T08:59:32.841Z,7.30
2019-05-17T09:02:03.214Z,6.90
2019-05-17T09:04:34.675Z,9.30
2019-05-17T09:07:05.124Z,7.90
2019-05-17T09:09:35.503Z,8.65
2019-05-17T09:12:05.945Z,8.58
2019-05-17T09:14:36.334Z,7.87
2019-05-17T09:17:06.709Z,8.90
2019-05-17T09:19:39.356Z,7.40
2019-05-17T09:22:10.454Z,7.58
2019-05-17T09:24:41.103Z,7.92
2019-05-17T09:27:11.483Z,8.53
2019-05-17T09:29:41.892Z,7.22
2019-05-17T09:32:12.270Z,8.20
2019-05-17T09:34:42.640Z,8.18
2019-05-17T09:37:14.872Z,6.80
2019-05-17T09:39:45.121Z,9.00
2019-05-17T09:42:15.483Z,9.58
2019-05-17T09:44:45.887Z,7.03
2019-05-17T09:47:16.259Z,8.65
2019-05-17T09:49:46.659Z,6.80
2019-05-17T09:52:17.023Z,5.72
2019-05-17T09:54:47.419Z,8.30
2019-05-17T09:57:20.269Z,6.08
2019-05-17T09:59:49.948Z,7.15
2019-05-17T10:02:20.538Z,6.92
2019-05-17T10:04:50.986Z,7.03
2019-05-17T10:07:21.352Z,6.75
2019-05-17T10:09:52.575Z,6.22
2019-05-17T10:12:22.942Z,6.65
2019-05-17T10:14:53.341Z,6.45
2019-05-17T10:17:23.711Z,6.17
2019-05-17T10:19:54.104Z,7.17
2019-05-17T10:22:24.539Z,7.45
2019-05-17T10:24:54.992Z,7.20
2019-05-17T10:27:25.360Z,6.95
2019-05-17T10:29:55.942Z,8.98
2019-05-17T10:32:26.311Z,8.53
2019-05-17T10:34:56.705Z,6.65
2019-05-17T10:37:27.081Z,7.20
2019-05-17T10:39:57.462Z,8.53
2019-05-17T10:42:30.433Z,6.60
2019-05-17T10:45:00.982Z,8.40
2019-05-17T10:47:31.428Z,7.80
2019-05-17T10:50:01.815Z,8.73
2019-05-17T10:52:32.277Z,6.87
2019-05-17T10:55:02.654Z,6.90
2019-05-17T10:57:34.617Z,8.28
2019-05-17T11:00:10.767Z,7.65
2019-05-17T11:02:41.279Z,6.78
2019-05-17T11:05:12.309Z,7.00
2019-05-17T11:07:42.680Z,8.23
2019-05-17T11:10:13.773Z,6.70
2019-05-17T11:12:44.137Z,5.75
2019-05-17T11:15:15.031Z,4.72
2019-05-17T11:17:45.402Z,5.95
2019-05-17T11:20:16.398Z,5.67
2019-05-17T11:22:46.836Z,8.30
2019-05-17T11:25:17.357Z,6.60
2019-05-17T11:27:47.750Z,7.22
2019-05-17T11:30:19.715Z,6.45
2019-05-17T11:32:50.087Z,6.87
2019-05-17T11:35:24.610Z,6.12
2019-05-17T11:37:53.554Z,7.75
2019-05-17T11:40:24.357Z,5.92
2019-05-17T11:42:54.732Z,6.00
2019-05-17T11:45:29.065Z,6.50
2019-05-17T11:47:57.251Z,7.03
2019-05-17T11:50:27.714Z,5.80
2019-05-17T11:52:58.093Z,4.87
2019-05-17T11:55:28.686Z,6.22
2019-05-17T11:57:59.046Z,5.80
2019-05-17T12:00:30.238Z,4.42
2019-05-17T12:03:00.605Z,4.33
2019-05-17T12:05:31.541Z,5.28
2019-05-17T12:08:01.914Z,4.78
2019-05-17T12:10:32.906Z,5.33
2019-05-17T12:13:03.308Z,6.08
2019-05-17T12:15:44.577Z,6.25
2019-05-17T12:18:05.861Z,5.00
2019-05-17T12:20:36.238Z,5.00
2019-05-17T12:23:06.605Z,4.17
2019-05-17T12:25:37.003Z,5.78
2019-05-17T12:28:07.375Z,6.75
2019-05-17T12:30:37.839Z,5.28
2019-05-17T12:33:08.201Z,4.28
2019-05-17T12:35:38.583Z,5.47
2019-05-17T12:38:08.955Z,6.33
2019-05-17T12:40:39.346Z,5.60
2019-05-17T12:43:09.731Z,6.12
2019-05-17T12:45:40.116Z,5.25
2019-05-17T12:48:10.506Z,5.67
2019-05-17T12:50:40.911Z,4.72
2019-05-17T12:53:11.278Z,6.20
2019-05-17T12:55:41.750Z,5.62
2019-05-17T12:58:12.128Z,6.17
2019-05-17T13:00:42.525Z,6.28
2019-05-17T13:03:12.921Z,6.20
2019-05-17T13:05:43.294Z,5.83
2019-05-17T13:08:13.680Z,5.03
2019-05-17T13:10:44.132Z,6.22
2019-05-17T13:13:14.500Z,6.17
2019-05-17T13:15:45.235Z,6.60
2019-05-17T13:18:15.600Z,5.83
2019-05-17T13:20:45.993Z,5.40
2019-05-17T13:23:16.372Z,8.40
2019-05-17T13:25:47.599Z,6.53
2019-05-17T13:28:17.977Z,6.67
2019-05-17T13:30:49.101Z,8.45
2019-05-17T13:33:19.469Z,6.28
2019-05-17T13:35:49.831Z,5.37
2019-05-17T13:38:20.522Z,4.75
2019-05-17T13:40:51.174Z,6.72
2019-05-17T13:43:21.602Z,5.67
2019-05-17T13:45:51.970Z,5.22
2019-05-17T13:48:22.358Z,6.25
2019-05-17T13:50:52.845Z,5.78
2019-05-17T13:53:23.303Z,6.03
2019-05-17T13:55:53.699Z,6.37
2019-05-17T13:58:24.087Z,5.72
2019-05-17T14:00:54.468Z,5.60
2019-05-17T14:03:24.898Z,6.78
2019-05-17T14:05:55.245Z,5.87
2019-05-17T14:08:25.649Z,5.05
2019-05-17T14:10:56.021Z,5.75
2019-05-17T14:13:26.602Z,5.50
2019-05-17T14:15:56.954Z,5.90
2019-05-17T14:18:27.353Z,5.90
2019-05-17T14:20:57.766Z,6.87
2019-05-17T14:23:28.155Z,5.22
2019-05-17T14:25:58.639Z,6.75
2019-05-17T14:28:29.102Z,5.20
2019-05-17T14:30:59.465Z,5.12
2019-05-17T14:33:29.977Z,5.40
2019-05-17T14:36:00.438Z,5.53
2019-05-17T14:38:31.898Z,5.25
2019-05-17T14:41:07.847Z,5.35
2019-05-17T14:43:34.414Z,5.62
2019-05-17T14:46:05.858Z,7.97
2019-05-17T14:48:36.496Z,6.10
2019-05-17T14:51:06.877Z,5.80
2019-05-17T14:53:37.469Z,5.80
2019-05-17T14:56:07.840Z,6.87
2019-05-17T14:58:39.675Z,6.72
2019-05-17T15:01:10.068Z,5.33
2019-05-17T15:03:40.451Z,7.97
2019-05-17T15:06:11.221Z,8.10
2019-05-17T15:08:41.590Z,6.50
2019-05-17T15:11:12.094Z,8.50
2019-05-17T15:13:42.618Z,6.97
2019-05-17T15:16:13.005Z,7.20
2019-05-17T15:18:43.371Z,8.35
2019-05-17T15:21:13.761Z,6.37
2019-05-17T15:23:44.134Z,7.47
2019-05-17T15:26:14.543Z,7.45
2019-05-17T15:28:44.894Z,7.08
2019-05-17T15:31:15.279Z,7.78
2019-05-17T15:33:46.743Z,7.85
2019-05-17T15:36:17.434Z,7.55
2019-05-17T15:38:47.743Z,6.65
2019-05-17T15:41:18.159Z,7.62
2019-05-17T15:43:48.510Z,5.80
2019-05-17T15:46:19.247Z,7.53
2019-05-17T15:48:49.621Z,6.12
2019-05-17T15:51:20.013Z,9.73
2019-05-17T15:53:50.381Z,6.25
2019-05-17T15:56:21.006Z,7.87
2019-05-17T15:58:51.383Z,8.13
2019-05-17T16:01:21.788Z,5.78
2019-05-17T16:03:52.179Z,7.55
2019-05-17T16:06:22.724Z,7.30
2019-05-17T16:08:53.101Z,7.65
2019-05-17T16:11:23.490Z,6.62
2019-05-17T16:13:53.861Z,8.68
2019-05-17T16:16:24.254Z,6.80
2019-05-17T16:18:54.616Z,8.00
2019-05-17T16:21:25.016Z,6.97
2019-05-17T16:23:55.387Z,6.85
2019-05-17T16:26:25.790Z,8.15
2019-05-17T16:28:56.164Z,7.15
2019-05-17T16:31:26.550Z,7.22
2019-05-17T16:33:56.922Z,9.33
2019-05-17T16:36:27.330Z,8.78
2019-05-17T16:38:57.711Z,7.25
2019-05-17T16:41:28.231Z,7.92
2019-05-17T16:43:58.607Z,7.97
2019-05-17T16:46:29.192Z,10.38
2019-05-17T16:49:00.537Z,10.03
2019-05-17T16:51:30.928Z,10.78
2019-05-17T16:54:01.303Z,8.33
2019-05-17T16:56:31.716Z,9.30
2019-05-17T16:59:02.489Z,9.78
2019-05-17T17:01:32.986Z,11.85
2019-05-17T17:04:03.381Z,8.45
2019-05-17T17:06:33.820Z,8.65
2019-05-17T17:09:05.427Z,9.23
2019-05-17T17:11:35.817Z,8.10
2019-05-17T17:14:06.591Z,7.90
2019-05-17T17:16:36.985Z,8.65
2019-05-17T17:19:07.626Z,9.83
2019-05-17T17:21:38.020Z,9.23
2019-05-17T17:24:08.391Z,9.23
2019-05-17T17:26:38.895Z,12.35
2019-05-17T17:29:10.309Z,10.20
2019-05-17T17:31:40.902Z,10.58
2019-05-17T17:34:11.285Z,9.93
2019-05-17T17:36:41.686Z,11.48
2019-05-17T17:39:12.060Z,9.98
2019-05-17T17:41:42.466Z,9.70
2019-05-17T17:44:12.923Z,10.80
2019-05-17T17:46:45.763Z,8.83
2019-05-17T17:49:16.156Z,9.13
2019-05-17T17:51:46.539Z,9.35
2019-05-17T17:54:16.906Z,12.88
2019-05-17T17:56:47.277Z,8.80
2019-05-17T17:59:17.663Z,9.10
2019-05-17T18:01:48.078Z,10.65
2019-05-17T18:04:18.531Z,11.93
2019-05-17T18:06:48.904Z,10.48
2019-05-17T18:09:19.307Z,8.50
2019-05-17T18:11:49.676Z,10.25
2019-05-17T18:14:20.051Z,11.43
2019-05-17T18:16:50.427Z,10.43
2019-05-17T18:19:20.870Z,10.25
2019-05-17T18:21:51.285Z,11.10
2019-05-17T18:24:21.647Z,12.37
2019-05-17T18:26:52.061Z,10.40
2019-05-17T18:29:22.441Z,11.12
2019-05-17T18:31:52.847Z,11.73
2019-05-17T18:34:23.218Z,12.10
2019-05-17T18:36:53.618Z,10.85
2019-05-17T18:39:23.985Z,12.00
2019-05-17T18:41:54.960Z,12.13
2019-05-17T18:44:28.124Z,11.22
2019-05-17T18:46:58.750Z,10.78
2019-05-17T18:49:29.128Z,11.80
2019-05-17T18:51:59.523Z,12.50
2019-05-17T18:54:30.869Z,10.32
2019-05-17T18:57:01.261Z,10.80
2019-05-17T18:59:31.626Z,12.80
2019-05-17T19:02:02.054Z,9.38
2019-05-17T19:04:32.432Z,10.65
2019-05-17T19:07:02.824Z,10.88
2019-05-17T19:09:33.467Z,10.80
2019-05-17T19:12:04.169Z,11.20
2019-05-17T19:14:42.505Z,10.70
2019-05-17T19:17:06.638Z,10.68
2019-05-17T19:19:37.060Z,11.03
2019-05-17T19:22:07.404Z,13.43
2019-05-17T19:24:37.799Z,10.65
2019-05-17T19:27:08.190Z,10.35
2019-05-17T19:29:38.555Z,12.55
2019-05-17T19:32:08.951Z,12.03
2019-05-17T19:34:39.327Z,10.45
2019-05-17T19:37:09.718Z,12.13
2019-05-17T19:39:40.217Z,11.10
2019-05-17T19:42:10.687Z,9.83
2019-05-17T19:44:41.245Z,12.07
2019-05-17T19:47:11.620Z,13.22
2019-05-17T19:49:42.000Z,11.70
2019-05-17T19:52:12.442Z,11.93
2019-05-17T19:54:42.768Z,11.25
2019-05-17T19:57:13.167Z,14.28
2019-05-17T19:59:43.542Z,11.08
2019-05-17T20:02:13.947Z,11.48
2019-05-17T20:04:44.324Z,12.88
2019-05-17T20:07:15.039Z,11.38
2019-05-17T20:09:45.414Z,10.72
2019-05-17T20:12:17.727Z,10.10
2019-05-17T20:14:48.108Z,9.75
2019-05-17T20:17:18.502Z,11.22
2019-05-17T20:19:48.872Z,10.38
2019-05-17T20:22:19.337Z,10.78
2019-05-17T20:24:49.712Z,11.40
2019-05-17T20:27:20.119Z,12.35
2019-05-17T20:29:50.493Z,11.25
2019-05-17T20:32:20.911Z,12.75
2019-05-17T20:34:51.297Z,11.12
2019-05-17T20:37:21.734Z,11.20
2019-05-17T20:39:52.076Z,12.33
2019-05-17T20:42:22.477Z,16.70
2019-05-17T20:44:52.857Z,12.63
2019-05-17T20:47:23.270Z,11.08
2019-05-17T20:49:53.646Z,9.58
2019-05-17T20:52:24.296Z,10.75
2019-05-17T20:54:54.744Z,11.38
2019-05-17T20:57:25.139Z,12.45
2019-05-17T21:00:08.765Z,14.55
2019-05-17T21:02:39.186Z,10.55
2019-05-17T21:05:11.439Z,15.00
2019-05-17T21:07:41.834Z,14.63
2019-05-17T21:10:13.910Z,13.22
2019-05-17T21:12:45.565Z,13.08
2019-05-17T21:15:16.153Z,11.85
2019-05-17T21:17:46.550Z,15.35
2019-05-17T21:20:17.445Z,12.80
2019-05-17T21:22:47.835Z,12.95
2019-05-17T21:25:18.859Z,10.30
2019-05-17T21:27:49.269Z,13.13
2019-05-17T21:30:19.778Z,13.05
2019-05-17T21:32:50.190Z,13.62
2019-05-17T21:35:20.580Z,15.23
2019-05-17T21:37:52.046Z,13.75
2019-05-17T21:40:23.490Z,13.40
2019-05-17T21:42:53.908Z,12.40
2019-05-17T21:45:24.283Z,13.00
2019-05-17T21:47:54.986Z,14.45
2019-05-17T21:50:25.358Z,16.10
2019-05-17T21:52:55.870Z,16.17
2019-05-17T21:55:26.260Z,14.38
2019-05-17T21:57:56.708Z,14.63
2019-05-17T22:01:03.617Z,14.95
2019-05-17T22:03:34.089Z,14.35
2019-05-17T22:06:04.547Z,13.68
2019-05-17T22:08:34.962Z,15.78
2019-05-17T22:11:05.577Z,17.05
2019-05-17T22:13:36.303Z,17.35
2019-05-17T22:16:19.237Z,15.55
2019-05-17T22:18:38.907Z,14.90
2019-05-17T22:21:09.453Z,16.25
2019-05-17T22:23:39.885Z,15.58
2019-05-17T22:26:10.268Z,19.35
2019-05-17T22:28:40.739Z,14.13
2019-05-17T22:31:11.120Z,16.60
2019-05-17T22:33:41.826Z,17.65
2019-05-17T22:36:12.214Z,17.20
2019-05-17T22:38:42.620Z,15.15
2019-05-17T22:41:14.081Z,13.80
2019-05-17T22:43:44.485Z,21.95
2019-05-17T22:46:14.866Z,17.07
2019-05-17T22:48:45.273Z,14.78
2019-05-17T22:51:15.655Z,18.02
2019-05-17T22:53:46.360Z,16.27
2019-05-17T22:56:16.748Z,14.78
2019-05-17T22:58:47.163Z,14.93
2019-05-17T23:01:17.545Z,16.00
2019-05-17T23:03:47.958Z,18.27
2019-05-17T23:06:18.342Z,17.25
2019-05-17T23:08:48.776Z,16.10
2019-05-17T23:11:19.150Z,14.40
2019-05-17T23:13:49.575Z,16.40
2019-05-17T23:16:21.103Z,16.57
2019-05-17T23:19:06.519Z,17.15
2019-05-17T23:21:37.179Z,16.50
2019-05-17T23:24:07.927Z,17.40
2019-05-17T23:26:38.323Z,19.37
2019-05-17T23:29:09.795Z,17.02
2019-05-17T23:31:40.174Z,17.77
2019-05-17T23:34:10.573Z,16.23
2019-05-17T23:36:40.979Z,16.97
2019-05-17T23:39:11.394Z,17.27
2019-05-17T23:41:41.774Z,18.65
2019-05-17T23:44:12.190Z,17.75
2019-05-17T23:46:42.619Z,18.73
2019-05-17T23:49:13.025Z,16.52
2019-05-17T23:51:43.409Z,16.90
2019-05-17T23:54:34.698Z,17.73
2019-05-17T23:57:05.101Z,17.12
2019-05-17T23:59:35.507Z,17.73
